Time;durP1;ratioP1;P1;durP2;ratioP2;P2;SDS_P1;SDS_P2;PMS_P1;PMS_P2;Temp;Humidity;BMP_temperature;BMP_pressure;BME280_temperature;BME280_humidity;BME280_pressure;Samples;Min_cycle;Max_cycle;Signal;HPM_P1;HPM_P2
2022/03/21 00:00:06;;;;;;;101.87;38.55;;;;;;;-3.57;66.57;100403.74;1770701;80;21426;-56
2022/03/21 00:02:34;;;;;;;79.77;35.88;;;;;;;-3.63;67.07;100398.47;1756665;80;21006;-56
2022/03/21 00:05:01;;;;;;;98.80;38.70;;;;;;;-3.67;69.18;100401.05;1743201;82;21022;-56
2022/03/21 00:07:28;;;;;;;91.47;37.05;;;;;;;-3.66;68.79;100400.56;1742871;81;21021;-56
2022/03/21 00:09:55;;;;;;;71.30;31.82;;;;;;;-3.70;69.25;100400.80;1743223;82;22077;-56
2022/03/21 00:12:23;;;;;;;100.42;38.80;;;;;;;-3.71;68.06;100397.80;1757154;80;21049;-56
2022/03/21 00:14:50;;;;;;;68.97;28.30;;;;;;;-3.71;67.61;100392.50;1774261;80;21395;-56
2022/03/21 00:17:18;;;;;;;86.17;38.40;;;;;;;-3.66;68.46;100400.56;1744027;80;20963;-55
2022/03/21 00:19:45;;;;;;;84.95;36.45;;;;;;;-3.70;69.18;100391.52;1743326;82;20994;-57
2022/03/21 00:22:12;;;;;;;87.75;38.63;;;;;;;-3.67;68.64;100400.17;1742894;81;21139;-56
2022/03/21 00:24:40;;;;;;;87.60;36.68;;;;;;;-3.72;69.66;100401.91;1743400;82;21045;-56
2022/03/21 00:27:12;;;;;;;86.15;37.08;;;;;;;-3.74;67.01;100398.06;1750873;80;21037;-56
2022/03/21 00:29:36;;;;;;;90.40;34.60;;;;;;;-3.76;69.87;100401.80;1773550;80;20998;-56
2022/03/21 00:32:05;;;;;;;78.17;34.83;;;;;;;-3.77;70.16;100395.66;1746888;80;21049;-56
2022/03/21 00:34:32;;;;;;;87.75;35.25;;;;;;;-3.79;70.64;100395.44;1743162;82;21463;-57
2022/03/21 00:36:59;;;;;;;83.35;34.95;;;;;;;-3.79;68.45;100392.80;1749373;80;21001;-56
2022/03/21 00:39:26;;;;;;;89.83;36.48;;;;;;;-3.78;67.71;100396.63;1743440;81;21401;-56
2022/03/21 00:41:53;;;;;;;88.12;34.35;;;;;;;-3.80;69.04;100390.63;1742960;81;21006;-56
2022/03/21 00:44:20;;;;;;;90.70;37.48;;;;;;;-3.81;70.01;100382.81;1743515;82;21010;-56
2022/03/21 00:46:47;;;;;;;87.80;35.48;;;;;;;-3.83;70.56;100384.77;1742986;82;22019;-56
2022/03/21 00:49:14;;;;;;;85.50;35.63;;;;;;;-3.85;69.99;100381.38;1742965;82;21049;-56
2022/03/21 00:51:41;;;;;;;80.60;38.15;;;;;;;-3.86;70.56;100379.22;1751590;80;21499;-57
2022/03/21 00:54:08;;;;;;;92.33;38.53;;;;;;;-3.86;69.11;100384.52;1760420;80;20997;-56
2022/03/21 00:56:36;;;;;;;83.72;38.60;;;;;;;-3.91;69.74;100384.58;1742942;82;20998;-56
2022/03/21 00:59:03;;;;;;;77.17;32.35;;;;;;;-3.94;69.69;100384.33;1743062;81;21065;-56
2022/03/21 01:01:30;;;;;;;86.75;34.03;;;;;;;-3.97;69.73;100380.63;1743062;82;21005;-56
2022/03/21 01:03:57;;;;;;;78.80;34.50;;;;;;;-4.02;67.82;100380.99;1742868;82;21567;-56
2022/03/21 01:06:24;;;;;;;76.97;33.67;;;;;;;-4.08;68.12;100378.88;1742923;82;21045;-56
2022/03/21 01:08:51;;;;;;;73.40;32.23;;;;;;;-4.09;69.24;100380.34;1743085;81;21041;-56
2022/03/21 01:11:17;;;;;;;79.53;33.65;;;;;;;-4.12;70.44;100377.93;1743077;82;20994;-56
2022/03/21 01:13:44;;;;;;;71.33;31.73;;;;;;;-4.18;68.38;100377.98;1742999;81;21454;-56
2022/03/21 01:16:13;;;;;;;68.75;29.60;;;;;;;-4.22;67.16;100379.67;1743120;82;21451;-56
2022/03/21 01:18:40;;;;;;;70.15;28.20;;;;;;;-4.30;65.52;100380.30;1743233;81;20975;-56
2022/03/21 01:21:07;;;;;;;75.37;31.73;;;;;;;-4.36;68.41;100376.83;1743373;82;21072;-56
2022/03/21 01:23:34;;;;;;;76.45;31.37;;;;;;;-4.38;68.79;100376.13;1742983;81;21493;-56
2022/03/21 01:26:01;;;;;;;70.45;31.12;;;;;;;-4.34;69.61;100372.27;1749338;80;20986;-56
2022/03/21 01:28:28;;;;;;;67.65;28.35;;;;;;;-4.31;68.32;100378.14;1768128;80;21306;-55
2022/03/21 01:30:54;;;;;;;72.78;31.68;;;;;;;-4.33;65.42;100372.63;1761499;80;20967;-55
2022/03/21 01:33:21;;;;;;;79.35;32.73;;;;;;;-4.41;66.37;100372.42;1742987;82;21021;-56
2022/03/21 01:35:48;;;;;;;82.12;35.98;;;;;;;-4.52;70.72;100363.21;1742771;82;21466;-56
2022/03/21 01:38:15;;;;;;;79.80;30.90;;;;;;;-4.57;72.11;100365.73;1743047;81;21041;-55
2022/03/21 01:40:42;;;;;;;73.17;32.03;;;;;;;-4.59;72.62;100358.41;1742828;82;23069;-56
2022/03/21 01:43:10;;;;;;;70.62;30.72;;;;;;;-4.61;71.09;100363.00;1742753;81;21053;-56
2022/03/21 01:45:39;;;;;;;73.67;35.08;;;;;;;-4.69;72.47;100356.66;1745442;80;21054;-56
2022/03/21 01:48:07;;;;;;;73.20;31.50;;;;;;;-4.78;74.55;100355.59;1750258;80;21411;-56
2022/03/21 01:50:37;;;;;;;64.27;29.72;;;;;;;-4.75;73.05;100353.17;1767524;80;22014;-56
2022/03/21 01:55:48;;;;;;;67.37;28.27;;;;;;;-4.79;74.09;100355.21;1742880;82;20994;-57
2022/03/21 01:58:15;;;;;;;72.00;30.77;;;;;;;-4.80;73.68;100352.70;1743014;81;21010;-56
2022/03/21 02:00:42;;;;;;;63.65;31.23;;;;;;;-4.87;74.37;100355.86;1743238;82;21014;-57
2022/03/21 02:03:09;;;;;;;72.85;33.13;;;;;;;-4.95;75.28;100356.13;1743009;81;21018;-57
2022/03/21 02:05:37;;;;;;;76.65;31.27;;;;;;;-5.00;75.63;100355.64;1743085;82;21478;-56
2022/03/21 02:08:04;;;;;;;64.80;28.25;;;;;;;-4.96;72.59;100364.52;1742759;81;22016;-56
2022/03/21 02:10:31;;;;;;;58.55;27.73;;;;;;;-4.96;69.85;100354.42;1743494;82;21403;-56
2022/03/21 02:12:58;;;;;;;58.25;26.65;;;;;;;-5.00;73.17;100356.48;1742946;81;21557;-56
2022/03/21 02:15:25;;;;;;;62.55;26.35;;;;;;;-4.98;69.49;100351.91;1743267;82;21001;-56
2022/03/21 02:17:59;;;;;;;52.75;23.20;;;;;;;-4.97;70.10;100354.06;1742943;81;21546;-57
2022/03/21 02:20:29;;;;;;;52.73;23.10;;;;;;;-4.97;72.67;100358.03;1743115;82;21001;-56
2022/03/21 02:23:10;;;;;;;58.68;26.07;;;;;;;-4.99;72.57;100357.32;1745077;80;20985;-56
2022/03/21 02:25:43;;;;;;;61.50;25.48;;;;;;;-5.01;71.02;100364.55;1743011;81;21029;-57
2022/03/21 02:28:12;;;;;;;53.87;25.25;;;;;;;-5.04;71.15;100363.00;1744028;80;21397;-56
2022/03/21 02:30:48;;;;;;;55.98;25.27;;;;;;;-5.07;70.35;100361.06;1768910;80;21047;-57
2022/03/21 02:33:17;;;;;;;51.35;25.52;;;;;;;-5.16;73.65;100365.28;1743055;81;21076;-56
2022/03/21 02:35:46;;;;;;;57.35;27.22;;;;;;;-5.24;76.13;100358.44;1742754;82;21009;-56
2022/03/21 02:38:13;;;;;;;54.63;26.00;;;;;;;-5.20;74.29;100362.53;1746302;80;21540;-56
2022/03/21 02:40:41;;;;;;;51.50;22.93;;;;;;;-5.18;74.47;100375.14;1771229;80;21053;-56
2022/03/21 02:43:08;;;;;;;54.42;23.70;;;;;;;-5.17;74.03;100368.89;1763900;80;21337;-56
2022/03/21 02:45:34;;;;;;;50.35;22.05;;;;;;;-5.13;72.83;100372.95;1722833;81;20975;-56
2022/03/21 02:48:01;;;;;;;55.52;27.32;;;;;;;-5.10;72.61;100371.41;1743127;82;21455;-56
2022/03/21 02:50:45;;;;;;;62.03;26.23;;;;;;;-5.17;75.40;100375.02;1743268;82;21008;-56
2022/03/21 02:53:12;;;;;;;52.08;25.60;;;;;;;-5.19;73.48;100372.98;1755666;80;21080;-57
2022/03/21 02:55:39;;;;;;;65.67;27.62;;;;;;;-5.22;73.66;100377.17;1743056;82;22132;-57
2022/03/21 02:58:06;;;;;;;60.12;26.95;;;;;;;-5.25;73.58;100387.16;1743027;82;21473;-57
2022/03/21 03:00:33;;;;;;;63.13;26.23;;;;;;;-5.28;74.00;100382.97;1743370;82;22034;-57
2022/03/21 03:03:00;;;;;;;53.28;24.95;;;;;;;-5.26;70.84;100383.67;1762142;80;20977;-57
2022/03/21 03:05:27;;;;;;;51.28;23.18;;;;;;;-5.25;69.74;100381.88;1767691;80;21001;-56
2022/03/21 03:07:54;;;;;;;54.85;24.20;;;;;;;-5.26;70.56;100381.52;1743072;81;21406;-57
2022/03/21 03:10:21;;;;;;;51.77;22.48;;;;;;;-5.26;72.24;100377.55;1743064;82;21042;-57
2022/03/21 03:12:48;;;;;;;53.52;24.47;;;;;;;-5.23;71.09;100376.81;1742955;81;21002;-57
2022/03/21 03:15:14;;;;;;;50.83;24.20;;;;;;;-5.19;73.04;100373.47;1743400;82;21045;-57
2022/03/21 03:17:41;;;;;;;42.75;23.38;;;;;;;-5.15;73.60;100375.73;1758250;80;20990;-57
2022/03/21 03:20:10;;;;;;;42.88;20.55;;;;;;;-5.06;75.12;100372.83;1771729;80;21208;-57
2022/03/21 03:22:37;;;;;;;45.52;21.12;;;;;;;-4.99;72.47;100373.19;1750466;80;22790;-56
2022/03/21 03:25:05;;;;;;;48.35;23.15;;;;;;;-4.97;72.54;100377.38;1772365;80;21045;-56
2022/03/21 03:27:32;;;;;;;51.20;22.52;;;;;;;-4.96;74.18;100373.77;1743377;81;21291;-56
2022/03/21 03:30:00;;;;;;;51.98;24.57;;;;;;;-4.92;72.20;100363.80;1743047;82;21001;-56
2022/03/21 03:32:27;;;;;;;54.90;23.52;;;;;;;-4.88;72.41;100370.03;1753603;80;21326;-56
2022/03/21 03:34:55;;;;;;;43.68;21.40;;;;;;;-4.85;73.95;100371.12;1742925;81;21471;-56
2022/03/21 03:37:21;;;;;;;43.13;21.23;;;;;;;-4.94;74.07;100374.51;1762949;80;21065;-56
2022/03/21 03:39:48;;;;;;;48.17;21.27;;;;;;;-5.04;74.22;100371.38;1743386;81;20982;-56
2022/03/21 03:42:15;;;;;;;52.38;25.40;;;;;;;-5.12;74.26;100374.66;1755851;80;21593;-56
2022/03/21 03:44:42;;;;;;;50.43;23.02;;;;;;;-5.23;74.45;100371.53;1773869;80;22010;-56
2022/03/21 03:47:09;;;;;;;53.90;25.00;;;;;;;-5.32;75.23;100372.26;1746310;80;21056;-56
2022/03/21 03:49:36;;;;;;;44.95;27.42;;;;;;;-5.38;75.25;100376.73;1741329;82;21013;-56
2022/03/21 03:52:04;;;;;;;47.13;22.48;;;;;;;-5.45;72.97;100375.52;1758143;80;20994;-55
2022/03/21 03:54:31;;;;;;;35.68;17.25;;;;;;;-5.49;72.28;100374.06;1743650;82;21444;-56
2022/03/21 03:56:58;;;;;;;51.70;25.57;;;;;;;-5.57;73.10;100372.02;1743154;80;21493;-56
2022/03/21 03:59:25;;;;;;;46.65;21.07;;;;;;;-5.65;75.62;100368.29;1743357;82;20974;-56
2022/03/21 04:01:51;;;;;;;43.70;20.20;;;;;;;-5.70;75.46;100364.70;1743094;82;20978;-56
2022/03/21 04:04:19;;;;;;;44.58;20.32;;;;;;;-5.69;72.69;100375.14;1743291;82;21011;-56
2022/03/21 04:06:46;;;;;;;46.87;22.40;;;;;;;-5.76;71.36;100375.73;1743408;82;21061;-56
2022/03/21 04:09:13;;;;;;;44.18;20.85;;;;;;;-5.88;75.17;100373.56;1743080;81;21239;-56
2022/03/21 04:11:40;;;;;;;51.00;23.22;;;;;;;-5.86;73.59;100381.36;1743243;82;20982;-55
2022/03/21 04:14:07;;;;;;;47.10;23.42;;;;;;;-5.90;76.57;100373.33;1743107;81;21431;-56
2022/03/21 04:16:36;;;;;;;48.23;23.05;;;;;;;-5.94;77.03;100379.82;1743329;82;21443;-55
2022/03/21 04:19:03;;;;;;;54.93;22.13;;;;;;;-5.97;77.73;100383.06;1743175;81;21057;-55
2022/03/21 04:21:30;;;;;;;50.95;21.42;;;;;;;-5.91;74.33;100384.86;1743351;82;21370;-55
2022/03/21 04:23:58;;;;;;;46.08;24.47;;;;;;;-5.94;76.70;100379.82;1742904;82;20971;-55
2022/03/21 04:26:26;;;;;;;59.13;23.55;;;;;;;-5.92;77.53;100387.14;1751267;80;21053;-55
2022/03/21 04:28:53;;;;;;;52.85;24.37;;;;;;;-5.87;77.25;100383.16;1743514;80;21060;-55
2022/03/21 04:31:19;;;;;;;43.15;22.85;;;;;;;-5.85;77.54;100381.72;1743250;82;21005;-55
2022/03/21 04:33:46;;;;;;;53.38;25.52;;;;;;;-5.87;77.83;100381.00;1771893;80;21401;-55
2022/03/21 04:36:13;;;;;;;52.75;27.73;;;;;;;-5.88;77.59;100384.61;1757644;80;22289;-56
2022/03/21 04:38:41;;;;;;;55.10;28.20;;;;;;;-5.91;77.90;100380.89;1770535;80;21009;-56
2022/03/21 04:41:08;;;;;;;57.40;31.73;;;;;;;-5.96;77.97;100383.91;1767598;80;21060;-55
2022/03/21 04:43:35;;;;;;;65.32;29.55;;;;;;;-5.95;76.93;100387.38;1773791;80;21056;-55
2022/03/21 04:46:01;;;;;;;67.30;29.90;;;;;;;-5.92;77.09;100382.70;1766667;80;21379;-56
2022/03/21 04:48:28;;;;;;;93.90;36.80;;;;;;;-5.92;76.99;100386.66;1742810;81;21462;-55
2022/03/21 04:50:55;;;;;;;65.90;34.13;;;;;;;-5.91;77.41;100388.33;1743251;82;21049;-55
2022/03/21 04:53:22;;;;;;;73.25;34.08;;;;;;;-5.90;76.44;100380.73;1763108;80;20969;-55
2022/03/21 04:55:49;;;;;;;60.90;30.77;;;;;;;-5.92;77.65;100380.53;1743279;82;20990;-55
2022/03/21 04:58:16;;;;;;;59.25;29.42;;;;;;;-5.89;77.62;100378.97;1743151;81;20992;-56
2022/03/21 05:00:44;;;;;;;53.68;27.85;;;;;;;-5.82;77.35;100381.48;1749463;80;21458;-55
2022/03/21 05:03:11;;;;;;;54.93;28.07;;;;;;;-5.75;76.78;100385.34;1743334;82;21369;-55
2022/03/21 05:05:38;;;;;;;55.73;23.52;;;;;;;-5.70;77.75;100387.99;1743198;82;21450;-55
2022/03/21 05:08:05;;;;;;;58.50;28.30;;;;;;;-5.64;76.57;100391.94;1763079;79;20997;-56
2022/03/21 05:10:32;;;;;;;58.13;23.62;;;;;;;-5.64;77.81;100393.74;1766859;80;21416;-56
2022/03/21 05:12:59;;;;;;;52.53;23.30;;;;;;;-5.64;77.09;100391.94;1743194;81;21014;-55
2022/03/21 05:15:25;;;;;;;43.58;21.30;;;;;;;-5.64;76.27;100391.94;1743327;82;21037;-55
2022/03/21 05:17:52;;;;;;;51.02;24.18;;;;;;;-5.73;77.38;100393.48;1743132;80;21388;-59
2022/03/21 05:20:20;;;;;;;53.28;23.50;;;;;;;-5.69;75.79;100390.99;1743299;82;21583;-56
2022/03/21 05:30:58;;;;;;;77.92;37.58;;;;;;;-5.52;76.93;100398.94;1743070;82;21057;-55
2022/03/21 05:36:11;;;;;;;75.80;31.57;;;;;;;-5.40;77.54;100394.48;1743304;82;21381;-55
2022/03/21 05:38:38;;;;;;;70.20;32.90;;;;;;;-5.37;77.50;100397.39;1743009;81;21049;-55
2022/03/21 05:41:04;;;;;;;75.75;33.95;;;;;;;-5.29;77.19;100397.63;1743288;82;21002;-56
2022/03/21 05:43:32;;;;;;;74.47;36.30;;;;;;;-5.19;77.01;100395.45;1746132;80;20954;-56
2022/03/21 05:46:01;;;;;;;74.60;32.20;;;;;;;-5.13;77.22;100400.72;1743234;81;20958;-56
2022/03/21 05:51:15;;;;;;;82.85;36.05;;;;;;;-5.02;75.08;100404.70;1745326;80;21019;-56
2022/03/21 05:53:42;;;;;;;65.87;31.00;;;;;;;-4.93;75.15;100408.41;1762970;81;21033;-56
2022/03/21 05:56:10;;;;;;;65.35;29.82;;;;;;;-4.83;73.54;100408.86;1755722;81;20998;-56
2022/03/21 05:58:36;;;;;;;63.05;27.95;;;;;;;-4.72;73.61;100412.44;1746461;80;21005;-56
2022/03/21 06:01:03;;;;;;;78.70;30.92;;;;;;;-4.62;73.42;100416.02;1747726;80;21450;-56
2022/03/21 06:03:30;;;;;;;71.37;30.15;;;;;;;-4.52;72.99;100418.79;1710242;83;21294;-56
2022/03/21 06:05:59;;;;;;;57.38;27.93;;;;;;;-4.33;72.78;100415.82;1747527;80;20994;-57
2022/03/21 06:08:26;;;;;;;65.08;30.90;;;;;;;-4.09;73.16;100414.28;1757244;80;21024;-56
2022/03/21 06:11:03;;;;;;;62.80;31.25;;;;;;;-3.89;71.93;100411.77;1743277;82;21064;-56
2022/03/21 06:13:22;;;;;;;;;;;;;;;-3.74;71.98;100408.67;1744240;82;21536;-56
2022/03/21 06:15:50;;;;;;;56.58;26.97;;;;;;;-3.54;73.17;100409.61;1749774;80;20914;-56
2022/03/21 06:18:17;;;;;;;68.35;29.18;;;;;;;-3.33;72.92;100418.88;1743082;81;20982;-56
2022/03/21 06:20:44;;;;;;;93.10;37.83;;;;;;;-3.19;72.33;100415.84;1743398;82;21058;-57
2022/03/21 06:23:11;;;;;;;62.83;33.23;;;;;;;-3.05;71.32;100413.33;1764582;80;21033;-56
2022/03/21 06:25:38;;;;;;;55.00;28.02;;;;;;;-2.94;71.04;100421.17;1767567;80;21320;-57
2022/03/21 06:28:05;;;;;;;63.15;28.17;;;;;;;-2.85;71.46;100416.87;1752193;80;20962;-56
2022/03/21 06:30:33;;;;;;;67.27;29.60;;;;;;;-2.74;71.38;100420.73;1735721;80;21415;-57
2022/03/21 06:33:00;;;;;;;66.15;28.40;;;;;;;-2.62;70.86;100422.31;1743379;81;21017;-57
2022/03/21 06:35:27;;;;;;;81.08;36.30;;;;;;;-2.48;70.47;100414.91;1743536;82;21454;-57
2022/03/21 06:37:54;;;;;;;112.68;45.85;;;;;;;-2.36;70.38;100424.45;1742879;81;21594;-56
2022/03/21 06:40:20;;;;;;;115.32;47.30;;;;;;;-2.25;70.28;100424.80;1743275;82;21026;-56
2022/03/21 06:42:47;;;;;;;97.55;43.95;;;;;;;-2.13;69.81;100417.06;1743181;82;21459;-57
2022/03/21 06:45:15;;;;;;;79.07;36.83;;;;;;;-1.97;69.86;100413.32;1743081;82;21054;-57
2022/03/21 06:47:42;;;;;;;71.12;34.30;;;;;;;-1.76;69.43;100423.32;1759508;80;21024;-57
2022/03/21 06:50:10;;;;;;;66.95;32.65;;;;;;;-1.61;68.42;100423.72;1777652;80;21264;-57
2022/03/21 06:52:39;;;;;;;60.12;28.85;;;;;;;-1.39;68.17;100419.03;1759099;80;21009;-57
2022/03/21 06:55:07;;;;;;;63.40;27.25;;;;;;;-1.03;68.30;100419.52;1754273;80;21462;-57
2022/03/21 06:57:35;;;;;;;58.33;25.30;;;;;;;-0.84;66.73;100418.62;1743884;80;21563;-57
2022/03/21 07:00:05;;;;;;;46.77;22.95;;;;;;;-0.69;66.16;100420.27;1760335;80;21105;-56
2022/03/21 07:02:33;;;;;;;46.08;22.52;;;;;;;-0.51;65.80;100418.96;1751197;80;21397;-57
2022/03/21 07:05:00;;;;;;;60.43;27.75;;;;;;;-0.40;64.67;100419.61;1761932;80;21015;-56
2022/03/21 07:07:27;;;;;;;59.65;26.73;;;;;;;-0.23;64.36;100417.94;1747744;80;21042;-56
2022/03/21 07:09:54;;;;;;;71.75;32.28;;;;;;;0.37;63.67;100420.78;1752247;80;21073;-57
2022/03/21 07:12:23;;;;;;;72.45;36.68;;;;;;;1.42;62.64;100419.66;1752230;80;22536;-56
2022/03/21 07:14:50;;;;;;;82.62;39.63;;;;;;;2.39;62.25;100416.74;1764307;80;21064;-57
2022/03/21 07:17:20;;;;;;;85.12;43.02;;;;;;;3.11;60.85;100404.20;1742382;80;21053;-58
2022/03/21 07:19:47;;;;;;;71.60;40.80;;;;;;;3.87;60.03;100405.30;1748488;80;21441;-57
2022/03/21 07:22:14;;;;;;;71.97;34.15;;;;;;;4.68;58.12;100397.05;1733862;81;21123;-57
2022/03/21 07:24:41;;;;;;;53.23;32.45;;;;;;;5.32;55.42;100407.56;1742037;80;21069;-57
2022/03/21 07:27:08;;;;;;;100.97;55.10;;;;;;;5.64;54.67;100404.13;1741466;81;21084;-58
2022/03/21 07:29:35;;;;;;;62.03;37.03;;;;;;;6.59;53.12;100397.58;1753219;80;21081;-57
2022/03/21 07:32:02;;;;;;;124.62;67.58;;;;;;;7.08;50.94;100393.41;1749908;80;20994;-56
2022/03/21 07:34:29;;;;;;;59.88;36.35;;;;;;;7.50;47.99;100395.05;1741360;80;21094;-57
2022/03/21 07:36:56;;;;;;;55.10;35.70;;;;;;;7.74;46.50;100378.84;1743566;80;20997;-57
2022/03/21 07:39:23;;;;;;;81.40;58.90;;;;;;;8.15;45.70;100382.75;1741464;82;21106;-57
2022/03/21 07:41:50;;;;;;;56.68;39.60;;;;;;;8.51;45.48;100386.11;1747658;80;21073;-57
2022/03/21 07:47:17;;;;;;;50.00;33.08;;;;;;;9.19;45.19;100387.44;1755514;80;21013;-58
2022/03/21 07:49:31;;;;;;;78.65;59.65;;;;;;;10.09;43.16;100385.53;1750756;80;21064;-58
2022/03/21 07:52:00;;;;;;;61.68;43.35;;;;;;;10.72;42.08;100379.20;1746695;80;49236;-58
2022/03/21 07:54:27;;;;;;;51.92;39.90;;;;;;;11.09;42.49;100371.91;1748948;80;20986;-57
2022/03/21 07:56:54;;;;;;;46.90;30.48;;;;;;;11.89;40.09;100372.30;1750749;80;21093;-58
2022/03/21 07:59:21;;;;;;;75.90;35.95;;;;;;;12.24;39.32;100373.75;1742666;80;20974;-58
2022/03/21 08:01:48;;;;;;;68.67;51.48;;;;;;;12.69;38.73;100374.02;1744818;80;21034;-58
2022/03/21 08:04:15;;;;;;;51.08;34.38;;;;;;;13.04;36.39;100372.64;1744254;80;22024;-58
2022/03/21 08:06:43;;;;;;;47.95;31.40;;;;;;;13.50;35.65;100371.75;1710133;81;20976;-58
2022/03/21 08:09:10;;;;;;;53.40;33.70;;;;;;;13.91;32.30;100364.88;1741671;80;21447;-59
2022/03/21 08:11:37;;;;;;;46.23;31.37;;;;;;;14.80;34.79;100361.75;1747282;80;20974;-59
2022/03/21 08:14:04;;;;;;;46.68;27.50;;;;;;;14.63;28.67;100357.69;1740081;81;20982;-59
2022/03/21 08:16:31;;;;;;;38.73;26.40;;;;;;;15.49;31.79;100359.39;1740949;80;21077;-59
2022/03/21 08:18:58;;;;;;;40.40;25.80;;;;;;;15.88;30.15;100352.45;1776624;80;21374;-58
2022/03/21 08:21:25;;;;;;;36.98;25.57;;;;;;;16.25;30.13;100358.01;1705565;83;21494;-59
2022/03/21 08:23:51;;;;;;;40.23;25.05;;;;;;;17.02;29.30;100353.93;1740324;81;20975;-59
2022/03/21 08:26:18;;;;;;;33.00;24.20;;;;;;;17.61;28.23;100351.44;1741649;80;21083;-59
2022/03/21 08:28:45;;;;;;;33.88;22.85;;;;;;;18.45;27.40;100344.69;1742814;80;21111;-58
2022/03/21 08:31:13;;;;;;;30.23;23.32;;;;;;;19.24;26.42;100337.70;1748897;80;21048;-59
2022/03/21 08:33:41;;;;;;;38.23;27.48;;;;;;;19.66;21.19;100339.46;1740765;82;21021;-59
2022/03/21 08:36:09;;;;;;;28.17;21.70;;;;;;;20.19;22.81;100337.45;1741958;80;21038;-59
2022/03/21 08:38:36;;;;;;;28.77;21.77;;;;;;;20.62;23.74;100335.73;1745918;80;21024;-59
2022/03/21 08:41:03;;;;;;;30.57;22.58;;;;;;;21.16;23.69;100335.97;1746335;80;21636;-59
2022/03/21 08:43:30;;;;;;;24.60;17.20;;;;;;;21.44;22.24;100332.06;1744869;80;21504;-59
2022/03/21 08:45:56;;;;;;;27.93;20.52;;;;;;;22.46;21.14;100336.89;1745667;80;21045;-59
2022/03/21 08:49:23;;;;;;;24.37;16.82;;;;;;;21.58;21.44;100327.47;1744667;80;20991;-59
2022/03/21 08:50:53;;;;;;;19.92;15.50;;;;;;;22.13;21.51;100328.63;1746656;80;21073;-59
2022/03/21 08:53:20;;;;;;;29.23;19.90;;;;;;;23.02;19.51;100320.70;1744469;80;21280;-59
2022/03/21 08:55:47;;;;;;;20.80;15.78;;;;;;;22.67;18.11;100318.84;1746842;80;20946;-59
2022/03/21 08:58:13;;;;;;;18.82;14.93;;;;;;;22.05;19.41;100320.14;1756204;80;21202;-58
2022/03/21 09:00:40;;;;;;;23.80;14.83;;;;;;;22.32;18.68;100322.24;1746326;80;21372;-59
2022/03/21 09:03:07;;;;;;;19.87;13.88;;;;;;;22.69;15.84;100313.01;1755062;80;21462;-58
2022/03/21 09:05:34;;;;;;;22.77;14.87;;;;;;;20.72;17.35;100317.72;1744471;80;22306;-58
2022/03/21 09:08:01;;;;;;;19.42;13.00;;;;;;;18.01;19.98;100318.63;1741295;82;20992;-58
2022/03/21 09:10:28;;;;;;;18.02;13.38;;;;;;;15.49;20.56;100312.12;1753219;80;20993;-57
2022/03/21 09:12:55;;;;;;;22.55;13.83;;;;;;;14.81;21.84;100315.64;1745564;80;21027;-58
2022/03/21 09:15:22;;;;;;;19.77;13.40;;;;;;;13.72;21.94;100318.76;1750546;80;21462;-58
2022/03/21 09:17:49;;;;;;;58.75;39.40;;;;;;;12.63;22.89;100309.14;1756265;80;21132;-58
2022/03/21 09:20:15;;;;;;;33.02;24.52;;;;;;;12.23;24.16;100309.58;1747900;80;21042;-58
2022/03/21 09:22:42;;;;;;;19.80;13.68;;;;;;;11.38;23.80;100308.43;1749962;80;21954;-58
2022/03/21 09:25:09;;;;;;;18.27;12.58;;;;;;;10.79;24.27;100311.34;1744495;80;21005;-57
2022/03/21 09:27:38;;;;;;;20.90;14.10;;;;;;;10.73;24.58;100308.98;1748690;80;21005;-57
2022/03/21 09:30:06;;;;;;;21.52;14.13;;;;;;;10.46;25.03;100301.66;1749033;80;21044;-58
2022/03/21 09:32:33;;;;;;;25.32;12.70;;;;;;;10.33;25.38;100298.53;1745096;80;21092;-57
2022/03/21 09:35:00;;;;;;;26.48;14.18;;;;;;;10.25;26.04;100303.41;1741736;81;21128;-57
2022/03/21 09:37:27;;;;;;;25.65;14.63;;;;;;;10.18;27.03;100308.88;1743502;80;21045;-56
2022/03/21 09:39:55;;;;;;;24.30;14.73;;;;;;;10.08;26.86;100298.54;1752486;80;22132;-58
2022/03/21 09:42:22;;;;;;;22.17;14.78;;;;;;;9.88;28.04;100295.97;1754092;80;21450;-58
2022/03/21 09:44:52;;;;;;;31.52;17.90;;;;;;;9.71;27.87;100298.08;1752918;80;21036;-57
2022/03/21 09:50:10;;;;;;;31.27;15.48;;;;;;;9.55;29.30;100288.08;1750146;80;20137;-54
2022/03/21 09:52:38;;;;;;;;;;;;;;;9.53;28.21;100292.05;1750549;80;21033;-55
2022/03/21 09:55:07;;;;;;;24.45;13.90;;;;;;;9.56;27.60;100287.55;1754258;80;20921;-57
2022/03/21 09:57:35;;;;;;;21.85;14.03;;;;;;;9.63;27.39;100279.39;1745921;80;21450;-56
2022/03/21 10:00:04;;;;;;;26.82;16.93;;;;;;;9.67;27.64;100277.92;1755854;80;21467;-58
2022/03/21 10:02:31;;;;;;;26.05;15.30;;;;;;;9.43;29.51;100279.00;1750903;80;21070;-56
2022/03/21 10:04:58;;;;;;;22.65;13.28;;;;;;;9.39;29.19;100275.05;1753148;80;21057;-57
2022/03/21 10:07:26;;;;;;;20.40;12.33;;;;;;;9.32;28.93;100273.77;1752273;80;21518;-57
2022/03/21 10:10:08;;;;;;;25.45;14.58;;;;;;;9.44;28.50;100267.13;1748772;80;21724;-57
2022/03/21 10:12:36;;;;;;;21.75;13.25;;;;;;;9.47;29.18;100257.20;1723833;80;21112;-57
2022/03/21 10:15:07;;;;;;;23.50;13.03;;;;;;;9.53;29.13;100263.11;1751529;80;21054;-57
2022/03/21 10:17:33;;;;;;;31.80;15.18;;;;;;;9.58;29.20;100251.64;1747410;80;21080;-57
2022/03/21 10:20:00;;;;;;;20.27;12.03;;;;;;;9.62;28.94;100250.14;1750982;80;21514;-57
2022/03/21 10:22:37;;;;;;;20.23;11.78;;;;;;;9.61;28.74;100258.78;1761065;80;21410;-57
2022/03/21 10:25:06;;;;;;;22.22;12.63;;;;;;;9.65;28.98;100248.86;1750641;80;21691;-57
2022/03/21 10:27:36;;;;;;;22.07;12.78;;;;;;;9.75;28.82;100252.77;1745713;80;21744;-57
2022/03/21 10:30:12;;;;;;;22.95;14.43;;;;;;;9.86;28.86;100249.86;1761636;80;21538;-57
2022/03/21 10:32:46;;;;;;;23.62;13.83;;;;;;;9.69;29.31;100248.22;1758953;79;21591;-57
2022/03/21 10:35:17;;;;;;;22.05;13.68;;;;;;;9.59;29.41;100244.65;1757601;80;21003;-56
2022/03/21 10:37:52;;;;;;;26.25;14.47;;;;;;;9.68;29.58;100245.21;1749570;80;21449;-56
2022/03/21 10:40:27;;;;;;;22.32;13.85;;;;;;;9.66;29.02;100240.55;1757561;80;20973;-57
2022/03/21 10:43:05;;;;;;;24.85;14.45;;;;;;;9.66;29.25;100231.59;1753823;80;22175;-57
2022/03/21 10:45:53;;;;;;;21.70;12.25;;;;;;;9.76;29.32;100222.45;1738017;80;21083;-57
2022/03/21 10:48:31;;;;;;;21.47;14.73;;;;;;;9.85;29.25;100219.77;1755003;80;21053;-57
2022/03/21 10:51:00;;;;;;;24.57;13.55;;;;;;;9.89;28.47;100218.27;1758375;80;21490;-57
2022/03/21 10:53:32;;;;;;;20.45;12.20;;;;;;;9.95;29.11;100216.55;1761099;80;21042;-57
2022/03/21 10:56:04;;;;;;;20.12;13.45;;;;;;;10.00;28.52;100212.14;1755869;80;21021;-57
2022/03/21 10:58:36;;;;;;;19.98;12.95;;;;;;;10.07;29.16;100203.40;1748217;80;21052;-57
2022/03/21 11:01:27;;;;;;;31.52;17.45;;;;;;;10.20;29.38;100207.05;1749305;80;21503;-56
2022/03/21 11:03:59;;;;;;;24.92;13.85;;;;;;;10.27;28.72;100206.48;1741312;80;21097;-57
2022/03/21 11:06:29;;;;;;;23.62;14.68;;;;;;;10.20;28.70;100203.81;1756886;80;20958;-57
2022/03/21 11:08:57;;;;;;;22.73;12.93;;;;;;;10.11;28.33;100205.98;1761399;80;21060;-56
2022/03/21 11:11:24;;;;;;;24.32;14.58;;;;;;;10.15;28.11;100204.99;1749862;80;21364;-57
2022/03/21 11:13:57;;;;;;;22.67;13.08;;;;;;;10.25;28.92;100197.73;1747323;80;21052;-56
2022/03/21 11:16:21;;;;;;;25.30;13.20;;;;;;;10.36;29.10;100192.94;1749760;80;21299;-57
2022/03/21 11:18:49;;;;;;;23.07;12.75;;;;;;;10.37;28.08;100193.23;1711444;81;21559;-56
2022/03/21 11:21:18;;;;;;;24.02;14.58;;;;;;;10.50;28.95;100185.47;1741851;80;21143;-57
2022/03/21 11:23:45;;;;;;;;;;;;;;;10.58;28.40;100174.32;1759602;80;21304;-57
2022/03/21 11:26:26;;;;;;;17.95;11.53;;;;;;;10.69;29.11;100178.47;1757759;80;20202;-57
2022/03/21 11:29:33;;;;;;;18.02;11.38;;;;;;;10.79;29.07;100166.25;1752786;80;21044;-56
2022/03/21 11:32:37;;;;;;;18.10;11.00;;;;;;;10.96;28.77;100168.62;1752711;80;21050;-56
2022/03/21 11:35:11;;;;;;;18.67;11.70;;;;;;;10.99;27.08;100167.62;1756687;80;21350;-56
2022/03/21 11:37:38;;;;;;;20.50;12.03;;;;;;;11.03;28.11;100162.58;1762196;80;20981;-57